Time;durP1;ratioP1;P1;durP2;ratioP2;P2;SDS_P1;SDS_P2;PMS_P1;PMS_P2;Temp;Humidity;BMP_temperature;BMP_pressure;BME280_temperature;BME280_humidity;BME280_pressure;Samples;Min_cycle;Max_cycle;Signal;HPM_P1;HPM_P2
2023/09/26 00:00:31;;;;;;;4.95;2.80;;;;;12.10;99179.00;;;;5040617;28;20049;-66
2023/09/26 00:02:58;;;;;;;3.65;3.08;;;;;12.00;99168.00;;;;5037987;28;20057;-66
2023/09/26 00:05:25;;;;;;;3.30;2.72;;;;;11.90;99169.00;;;;5040096;28;20049;-67
2023/09/26 00:07:52;;;;;;;4.03;3.05;;;;;11.80;99165.00;;;;5023179;28;20053;-67
2023/09/26 00:10:19;;;;;;;4.68;2.60;;;;;11.80;99167.00;;;;5038735;28;20069;-66
2023/09/26 00:12:47;;;;;;;3.75;3.05;;;;;11.80;99173.00;;;;5039827;28;20042;-66
2023/09/26 00:15:14;;;;;;;4.28;3.15;;;;;11.70;99173.00;;;;5039734;28;20499;-66
2023/09/26 00:17:41;;;;;;;3.33;2.90;;;;;11.60;99168.00;;;;5043675;28;20041;-65
2023/09/26 00:20:23;;;;;;;3.90;2.63;;;;;11.50;99160.00;;;;5039972;28;20050;-66
2023/09/26 00:22:50;;;;;;;5.13;2.80;;;;;11.40;99158.00;;;;5038872;28;20548;-66
2023/09/26 00:25:17;;;;;;;3.05;2.67;;;;;11.30;99162.00;;;;5041162;28;20117;-67
2023/09/26 00:27:44;;;;;;;4.65;2.80;;;;;11.30;99163.00;;;;5039068;28;20490;-67
2023/09/26 00:30:12;;;;;;;4.95;2.80;;;;;11.30;99158.00;;;;5044527;28;20044;-65
2023/09/26 00:32:39;;;;;;;4.32;2.65;;;;;11.30;99169.00;;;;5046497;28;20081;-66
2023/09/26 00:35:10;;;;;;;4.05;2.47;;;;;11.30;99166.00;;;;5042384;28;20053;-65
2023/09/26 00:37:36;;;;;;;5.28;3.10;;;;;11.30;99162.00;;;;5055096;28;20125;-65
2023/09/26 00:40:03;;;;;;;4.93;2.60;;;;;11.30;99158.00;;;;5034978;28;20060;-66
2023/09/26 00:42:30;;;;;;;5.78;2.63;;;;;11.30;99160.00;;;;5040779;28;20083;-66
2023/09/26 00:44:57;;;;;;;2.85;2.40;;;;;11.30;99163.00;;;;5034357;28;20052;-65
2023/09/26 00:47:24;;;;;;;3.85;2.78;;;;;11.30;99160.00;;;;5032594;28;20057;-65
2023/09/26 00:49:51;;;;;;;3.50;2.80;;;;;11.30;99147.00;;;;5032884;28;20399;-67
2023/09/26 00:52:17;;;;;;;6.00;2.80;;;;;11.20;99162.00;;;;5016437;28;20069;-63
2023/09/26 00:54:44;;;;;;;3.72;2.58;;;;;11.20;99151.00;;;;5033411;28;20045;-63
2023/09/26 00:57:11;;;;;;;3.35;2.80;;;;;11.20;99164.00;;;;5032728;28;20057;-64
2023/09/26 00:59:39;;;;;;;7.53;3.40;;;;;11.30;99160.00;;;;5034125;28;20107;-64
2023/09/26 01:02:06;;;;;;;2.65;2.45;;;;;11.30;99159.00;;;;5032549;28;20056;-63
2023/09/26 01:04:33;;;;;;;3.67;2.78;;;;;11.40;99164.00;;;;5033140;28;20046;-63
2023/09/26 01:06:59;;;;;;;3.70;2.90;;;;;11.50;99159.00;;;;5032221;28;20046;-64
2023/09/26 01:09:26;;;;;;;5.65;3.15;;;;;11.50;99154.00;;;;5034063;28;20073;-64
2023/09/26 01:11:53;;;;;;;3.50;2.65;;;;;11.50;99156.00;;;;5032542;28;20141;-65
2023/09/26 01:14:19;;;;;;;3.97;2.72;;;;;11.70;99155.00;;;;5031948;28;20053;-65
2023/09/26 01:16:46;;;;;;;4.32;2.75;;;;;11.60;99163.00;;;;5034437;28;20048;-65
2023/09/26 01:19:13;;;;;;;5.00;2.80;;;;;11.40;99148.00;;;;5035089;28;20099;-65
2023/09/26 01:21:39;;;;;;;3.53;2.67;;;;;11.30;99149.00;;;;5033050;28;20049;-64
2023/09/26 01:24:06;;;;;;;3.35;2.95;;;;;11.20;99142.00;;;;5033588;28;20041;-65
2023/09/26 01:26:36;;;;;;;4.72;2.83;;;;;11.10;99143.00;;;;5032123;28;20073;-64
2023/09/26 01:29:04;;;;;;;4.60;2.75;;;;;11.00;99140.00;;;;5033344;28;20084;-64
2023/09/26 01:31:35;;;;;;;3.70;2.95;;;;;10.90;99143.00;;;;5033076;28;20044;-64
2023/09/26 01:34:03;;;;;;;3.28;2.60;;;;;10.90;99139.00;;;;5032752;28;20131;-65
2023/09/26 01:36:30;;;;;;;5.32;3.08;;;;;10.90;99146.00;;;;5032993;28;20041;-64
2023/09/26 01:38:57;;;;;;;3.75;2.80;;;;;11.00;99141.00;;;;5031897;28;20071;-65
2023/09/26 01:41:25;;;;;;;3.65;3.00;;;;;11.00;99139.00;;;;5031770;28;20084;-65
2023/09/26 01:43:52;;;;;;;3.58;2.40;;;;;11.00;99132.00;;;;5032417;28;20073;-65
2023/09/26 01:46:19;;;;;;;3.92;2.60;;;;;11.00;99131.00;;;;5032787;28;20037;-65
2023/09/26 01:48:46;;;;;;;3.08;2.70;;;;;11.00;99132.00;;;;5031479;28;20049;-65
2023/09/26 01:51:14;;;;;;;3.53;2.92;;;;;10.90;99135.00;;;;5031509;28;20045;-65
2023/09/26 01:53:40;;;;;;;2.85;2.53;;;;;10.90;99124.00;;;;5030960;28;20560;-66
2023/09/26 01:56:07;;;;;;;4.90;2.72;;;;;11.10;99139.00;;;;5032728;28;20069;-65
2023/09/26 01:58:33;;;;;;;5.05;3.00;;;;;10.90;99133.00;;;;5015145;28;20525;-65
2023/09/26 02:01:00;;;;;;;4.18;2.70;;;;;10.90;99125.00;;;;5031327;28;20051;-65
2023/09/26 02:03:27;;;;;;;3.55;2.83;;;;;10.80;99132.00;;;;5032161;28;20541;-67
2023/09/26 02:05:56;;;;;;;4.68;3.00;;;;;10.80;99122.00;;;;5032176;28;20041;-65
2023/09/26 02:08:23;;;;;;;3.08;2.67;;;;;10.80;99126.00;;;;5031148;28;20049;-65
2023/09/26 02:10:50;;;;;;;4.10;2.65;;;;;10.70;99124.00;;;;5032538;28;20045;-65
2023/09/26 02:13:17;;;;;;;3.50;2.70;;;;;10.70;99118.00;;;;5032342;28;20041;-65
2023/09/26 02:15:44;;;;;;;3.95;2.45;;;;;10.60;99124.00;;;;5030436;28;20045;-65
2023/09/26 02:18:10;;;;;;;3.60;2.65;;;;;10.70;99120.00;;;;5031271;28;20049;-65
2023/09/26 02:20:38;;;;;;;3.97;2.72;;;;;10.80;99116.00;;;;5032317;28;20043;-65
2023/09/26 02:23:04;;;;;;;4.82;2.40;;;;;10.80;99126.00;;;;5032349;28;20132;-65
2023/09/26 02:25:31;;;;;;;4.15;2.40;;;;;10.80;99121.00;;;;5030454;28;20474;-65
2023/09/26 02:28:00;;;;;;;4.40;2.63;;;;;10.80;99117.00;;;;5032219;28;20050;-65
2023/09/26 02:30:31;;;;;;;2.70;2.35;;;;;10.60;99118.00;;;;5031096;28;20103;-67
2023/09/26 02:32:58;;;;;;;3.70;2.60;;;;;10.60;99113.00;;;;5030919;28;20049;-66
2023/09/26 02:35:25;;;;;;;2.97;2.53;;;;;10.60;99121.00;;;;5031402;28;20041;-65
2023/09/26 02:37:52;;;;;;;3.00;2.30;;;;;10.60;99111.00;;;;5031947;28;20390;-66
2023/09/26 02:40:18;;;;;;;4.20;2.40;;;;;10.60;99112.00;;;;5032100;28;20073;-65
2023/09/26 02:42:45;;;;;;;3.15;2.47;;;;;10.50;99108.00;;;;5030915;28;20048;-65
2023/09/26 02:45:15;;;;;;;4.07;2.55;;;;;10.40;99115.00;;;;5031368;28;20495;-66
2023/09/26 02:47:43;;;;;;;5.53;3.35;;;;;10.40;99101.00;;;;5032126;28;20076;-66
2023/09/26 02:50:10;;;;;;;6.28;3.10;;;;;10.40;99103.00;;;;5030588;28;20057;-65
2023/09/26 02:52:40;;;;;;;5.68;2.88;;;;;10.50;99101.00;;;;5032183;28;20459;-66
2023/09/26 02:55:08;;;;;;;3.28;2.30;;;;;10.50;99105.00;;;;5031112;28;20045;-65
2023/09/26 02:57:34;;;;;;;5.20;2.80;;;;;10.40;99096.00;;;;5014385;28;20140;-67
2023/09/26 03:00:11;;;;;;;4.82;3.30;;;;;10.20;99102.00;;;;5032902;28;20046;-66
2023/09/26 03:02:38;;;;;;;3.03;2.47;;;;;10.20;99098.00;;;;5034558;28;20049;-66
2023/09/26 03:05:05;;;;;;;6.05;3.03;;;;;10.20;99092.00;;;;5035071;28;20111;-66
2023/09/26 03:07:31;;;;;;;5.80;2.60;;;;;10.20;99098.00;;;;5034590;28;20050;-65
2023/09/26 03:09:58;;;;;;;4.13;2.90;;;;;10.20;99092.00;;;;5017798;28;20080;-67
2023/09/26 03:12:25;;;;;;;3.25;2.72;;;;;10.10;99093.00;;;;5034102;28;20041;-65
2023/09/26 03:14:52;;;;;;;115.90;66.32;;;;;10.10;99085.00;;;;5034877;28;20445;-65
2023/09/26 03:17:18;;;;;;;7.30;4.60;;;;;10.10;99090.00;;;;5033738;28;20041;-65
2023/09/26 03:19:45;;;;;;;4.35;3.05;;;;;10.20;99084.00;;;;5034269;28;20052;-65
2023/09/26 03:22:12;;;;;;;4.93;3.28;;;;;10.20;99092.00;;;;5035336;28;20384;-65
2023/09/26 03:24:39;;;;;;;3.53;2.88;;;;;10.20;99089.00;;;;5033466;28;20095;-65
2023/09/26 03:27:05;;;;;;;3.95;3.03;;;;;10.20;99089.00;;;;5035356;28;20045;-65
2023/09/26 03:29:32;;;;;;;5.20;3.22;;;;;10.20;99096.00;;;;5034024;28;20426;-65
2023/09/26 03:31:59;;;;;;;3.78;2.85;;;;;10.10;99085.00;;;;5034048;28;20112;-65
2023/09/26 03:34:25;;;;;;;5.95;3.38;;;;;10.00;99087.00;;;;5033672;28;20428;-66
2023/09/26 03:36:53;;;;;;;3.90;2.90;;;;;9.90;99080.00;;;;5033789;28;20399;-65
2023/09/26 03:39:19;;;;;;;6.57;3.00;;;;;9.80;99087.00;;;;5033652;28;20049;-65
2023/09/26 03:41:46;;;;;;;4.78;2.90;;;;;9.80;99080.00;;;;5033699;28;20049;-65
2023/09/26 03:44:12;;;;;;;5.38;3.05;;;;;9.80;99083.00;;;;5034507;28;20053;-64
2023/09/26 03:46:41;;;;;;;5.35;3.05;;;;;9.70;99080.00;;;;5034809;28;20068;-65
2023/09/26 03:49:07;;;;;;;3.35;2.50;;;;;9.70;99085.00;;;;5034969;28;20099;-64
2023/09/26 03:51:34;;;;;;;3.08;2.78;;;;;9.70;99068.00;;;;5034967;28;20391;-65
2023/09/26 03:54:01;;;;;;;3.28;2.83;;;;;9.60;99070.00;;;;5034666;28;20056;-65
2023/09/26 03:56:27;;;;;;;3.90;2.72;;;;;9.60;99082.00;;;;5034642;28;20073;-65
2023/09/26 03:58:56;;;;;;;6.22;3.03;;;;;9.80;99070.00;;;;5034588;28;20055;-65
2023/09/26 04:01:23;;;;;;;4.30;3.20;;;;;9.90;99072.00;;;;5033454;28;20386;-65
2023/09/26 04:03:51;;;;;;;5.57;2.78;;;;;9.90;99072.00;;;;5034101;28;20041;-64
2023/09/26 04:06:18;;;;;;;4.18;3.15;;;;;9.90;99072.00;;;;5034596;28;20040;-66
2023/09/26 04:08:45;;;;;;;5.50;2.90;;;;;9.80;99068.00;;;;5033176;28;20077;-65
2023/09/26 04:11:16;;;;;;;7.32;4.70;;;;;9.80;99064.00;;;;5033164;28;20076;-65
2023/09/26 04:13:44;;;;;;;5.57;2.90;;;;;9.80;99066.00;;;;5034061;28;20448;-65
2023/09/26 04:16:11;;;;;;;3.72;3.05;;;;;9.80;99064.00;;;;5034259;28;20412;-65
2023/09/26 04:18:38;;;;;;;5.97;3.47;;;;;9.80;99069.00;;;;5034381;28;20073;-66
2023/09/26 04:21:06;;;;;;;6.82;3.40;;;;;9.70;99067.00;;;;5034771;28;20056;-65
2023/09/26 04:23:37;;;;;;;3.47;2.75;;;;;9.60;99064.00;;;;5033764;28;20116;-65
2023/09/26 04:26:15;;;;;;;4.32;3.22;;;;;9.60;99062.00;;;;5034081;28;20095;-65
2023/09/26 04:28:43;;;;;;;6.45;3.42;;;;;9.60;99063.00;;;;5034047;28;20086;-65
2023/09/26 04:31:16;;;;;;;3.25;2.75;;;;;9.50;99064.00;;;;5034145;28;20041;-66
2023/09/26 04:33:45;;;;;;;7.00;3.08;;;;;9.50;99065.00;;;;5033796;28;20402;-65
2023/09/26 04:36:11;;;;;;;4.03;2.90;;;;;9.50;99065.00;;;;5033889;28;20116;-65
2023/09/26 04:38:38;;;;;;;4.43;3.90;;;;;9.60;99070.00;;;;5033846;28;20127;-65
2023/09/26 04:41:05;;;;;;;4.13;3.10;;;;;9.70;99073.00;;;;5034096;28;20041;-65
2023/09/26 04:43:32;;;;;;;3.75;2.60;;;;;9.80;99070.00;;;;5033238;28;20069;-67
2023/09/26 04:45:59;;;;;;;4.03;3.17;;;;;9.70;99067.00;;;;5033665;28;20128;-65
2023/09/26 04:48:26;;;;;;;5.43;3.90;;;;;9.70;99070.00;;;;5033786;28;20479;-66
2023/09/26 04:50:52;;;;;;;5.80;4.15;;;;;9.50;99065.00;;;;5033661;28;20457;-66
2023/09/26 04:53:19;;;;;;;7.03;3.75;;;;;9.40;99064.00;;;;5032337;28;20052;-65
2023/09/26 04:55:46;;;;;;;5.20;4.13;;;;;9.50;99062.00;;;;5033046;28;20053;-66
2023/09/26 04:58:12;;;;;;;8.95;3.78;;;;;9.50;99066.00;;;;5034019;28;20045;-65
2023/09/26 05:00:39;;;;;;;4.35;3.65;;;;;9.50;99061.00;;;;5033802;28;20065;-64
2023/09/26 05:03:05;;;;;;;7.80;4.50;;;;;9.50;99061.00;;;;5032411;28;20046;-65
2023/09/26 05:05:32;;;;;;;4.45;3.22;;;;;9.40;99065.00;;;;5032846;28;20502;-67
2023/09/26 05:07:59;;;;;;;6.38;3.42;;;;;9.30;99062.00;;;;5033865;28;20041;-66
2023/09/26 05:10:25;;;;;;;5.45;3.63;;;;;9.20;99063.00;;;;5033655;28;20457;-66
2023/09/26 05:12:52;;;;;;;4.15;2.90;;;;;9.20;99069.00;;;;5033528;28;20631;-66
2023/09/26 05:15:19;;;;;;;8.18;5.28;;;;;9.10;99065.00;;;;5032642;28;20564;-66
2023/09/26 05:17:47;;;;;;;5.20;3.90;;;;;9.20;99056.00;;;;5033235;28;20046;-66
2023/09/26 05:20:15;;;;;;;5.95;3.97;;;;;9.20;99065.00;;;;5033171;28;20045;-66
2023/09/26 05:22:43;;;;;;;7.97;4.97;;;;;9.20;99063.00;;;;5032820;28;20041;-66
2023/09/26 05:25:10;;;;;;;6.07;3.60;;;;;9.20;99068.00;;;;5032440;28;20053;-66
2023/09/26 05:27:39;;;;;;;5.13;3.72;;;;;9.20;99059.00;;;;5033060;28;20050;-66
2023/09/26 05:30:07;;;;;;;5.93;3.20;;;;;9.20;99060.00;;;;5033390;28;20380;-66
2023/09/26 05:32:33;;;;;;;3.47;3.13;;;;;9.30;99067.00;;;;5032860;28;20125;-66
2023/09/26 05:35:00;;;;;;;4.97;3.60;;;;;9.30;99071.00;;;;5031186;28;20153;-66
2023/09/26 05:37:27;;;;;;;5.45;3.30;;;;;9.40;99074.00;;;;5032771;28;20041;-66
2023/09/26 05:39:54;;;;;;;5.47;3.30;;;;;9.40;99072.00;;;;5032786;28;20044;-66
2023/09/26 05:42:21;;;;;;;5.40;3.53;;;;;9.40;99065.00;;;;5015037;28;20203;-66
2023/09/26 05:44:47;;;;;;;4.78;3.13;;;;;9.40;99070.00;;;;5032189;28;20041;-66
2023/09/26 05:47:14;;;;;;;6.05;3.83;;;;;9.30;99069.00;;;;5032478;28;20047;-66
2023/09/26 05:49:41;;;;;;;6.38;3.10;;;;;9.40;99074.00;;;;5032672;28;20046;-66
2023/09/26 05:52:07;;;;;;;5.50;3.60;;;;;9.50;99076.00;;;;5032550;28;20041;-66
2023/09/26 05:54:34;;;;;;;6.72;3.50;;;;;9.50;99078.00;;;;5032045;28;20125;-66
2023/09/26 05:57:03;;;;;;;4.45;3.35;;;;;9.50;99085.00;;;;5032339;28;20049;-66
2023/09/26 05:59:30;;;;;;;4.75;3.67;;;;;9.70;99081.00;;;;5031248;28;20072;-65
2023/09/26 06:01:56;;;;;;;3.75;3.33;;;;;9.70;99088.00;;;;5032307;28;20132;-66
2023/09/26 06:04:23;;;;;;;4.32;3.55;;;;;9.70;99088.00;;;;5030558;28;20041;-66
2023/09/26 06:06:50;;;;;;;6.18;3.33;;;;;9.90;99091.00;;;;5032244;28;20041;-66
2023/09/26 06:09:16;;;;;;;7.30;4.05;;;;;9.90;99094.00;;;;5032286;28;20041;-65
2023/09/26 06:11:43;;;;;;;4.90;3.40;;;;;9.90;99088.00;;;;5032414;28;20092;-66
2023/09/26 06:14:10;;;;;;;5.75;3.50;;;;;10.00;99090.00;;;;5031799;28;20049;-66
2023/09/26 06:16:37;;;;;;;4.63;3.33;;;;;10.10;99092.00;;;;5032222;28;20041;-66
2023/09/26 06:19:04;;;;;;;5.05;3.72;;;;;10.20;99090.00;;;;5032178;28;20041;-66
2023/09/26 06:21:31;;;;;;;4.32;3.08;;;;;10.30;99086.00;;;;5030823;28;20057;-66
2023/09/26 06:23:57;;;;;;;5.20;3.30;;;;;10.50;99092.00;;;;5031611;28;20044;-65
2023/09/26 06:26:24;;;;;;;6.18;3.22;;;;;10.50;99102.00;;;;5032103;28;20045;-65
2023/09/26 06:28:50;;;;;;;5.95;3.55;;;;;10.60;99102.00;;;;5031992;28;20047;-65
2023/09/26 06:31:17;;;;;;;7.97;4.22;;;;;10.80;99106.00;;;;5030743;28;20049;-65
2023/09/26 06:33:44;;;;;;;5.55;3.25;;;;;10.90;99108.00;;;;5029417;28;20057;-65
2023/09/26 06:36:17;;;;;;;4.68;3.60;;;;;11.10;99108.00;;;;5031901;28;20081;-66
2023/09/26 06:38:44;;;;;;;3.20;2.78;;;;;11.00;99103.00;;;;5031988;28;20494;-65
2023/09/26 06:41:11;;;;;;;4.25;3.35;;;;;11.10;99104.00;;;;5030956;28;20045;-66
2023/09/26 06:43:37;;;;;;;4.43;3.10;;;;;11.10;99108.00;;;;5031236;28;20472;-65
2023/09/26 06:46:06;;;;;;;5.57;3.20;;;;;11.00;99101.00;;;;5031817;28;20053;-65
2023/09/26 06:48:35;;;;;;;3.58;3.25;;;;;11.10;99105.00;;;;5031961;28;20049;-66
2023/09/26 06:51:02;;;;;;;4.00;3.05;;;;;11.20;99103.00;;;;5031813;28;20479;-65
2023/09/26 06:53:29;;;;;;;4.30;3.22;;;;;11.40;99105.00;;;;5031448;28;20048;-65
2023/09/26 06:56:00;;;;;;;4.38;3.58;;;;;11.40;99102.00;;;;5031852;28;20046;-65
2023/09/26 06:58:27;;;;;;;5.47;3.47;;;;;11.40;99093.00;;;;5031744;28;20413;-65
2023/09/26 07:00:54;;;;;;;6.55;3.13;;;;;11.60;99097.00;;;;5031810;28;20180;-65
2023/09/26 07:03:21;;;;;;;3.63;3.20;;;;;11.80;99098.00;;;;5030423;28;20048;-65
2023/09/26 07:05:47;;;;;;;4.80;3.05;;;;;11.80;99104.00;;;;5030132;28;20051;-66
2023/09/26 07:08:14;;;;;;;4.13;3.60;;;;;11.90;99107.00;;;;5030538;28;20236;-66
2023/09/26 07:10:42;;;;;;;5.03;3.55;;;;;12.00;99095.00;;;;5031595;28;20128;-66
2023/09/26 07:13:09;;;;;;;3.83;3.17;;;;;12.10;99098.00;;;;5031519;28;20069;-66
2023/09/26 07:15:59;;;;;;;5.60;3.65;;;;;12.10;99089.00;;;;5031730;28;20045;-66
2023/09/26 07:18:26;;;;;;;5.07;4.07;;;;;12.20;99092.00;;;;5031674;28;20037;-67
2023/09/26 07:20:53;;;;;;;6.35;3.78;;;;;12.40;99093.00;;;;5031548;28;20467;-66
2023/09/26 07:23:20;;;;;;;5.47;4.07;;;;;12.50;99096.00;;;;5031490;28;20128;-66
2023/09/26 07:25:47;;;;;;;5.05;3.55;;;;;12.70;99099.00;;;;5029827;28;20080;-67
2023/09/26 07:28:13;;;;;;;9.35;4.35;;;;;12.80;99104.00;;;;5031631;28;20049;-66
2023/09/26 07:30:40;;;;;;;7.40;4.18;;;;;12.60;99109.00;;;;5031430;28;20091;-66
2023/09/26 07:33:07;;;;;;;7.15;4.45;;;;;12.70;99100.00;;;;5031544;28;20042;-66
2023/09/26 07:35:33;;;;;;;7.20;4.30;;;;;12.80;99101.00;;;;5030744;28;20053;-65
2023/09/26 07:38:00;;;;;;;7.25;4.32;;;;;13.00;99094.00;;;;5031323;28;20038;-67
2023/09/26 07:40:26;;;;;;;6.63;4.13;;;;;13.10;99094.00;;;;5031388;28;20046;-67
2023/09/26 07:42:56;;;;;;;8.00;4.70;;;;;13.10;99092.00;;;;5030199;28;20056;-67
2023/09/26 07:45:23;;;;;;;9.30;4.72;;;;;13.20;99094.00;;;;5031781;28;20409;-64
2023/09/26 07:47:49;;;;;;;10.18;5.75;;;;;13.30;99101.00;;;;5035060;28;20120;-66
2023/09/26 07:50:16;;;;;;;10.05;5.68;;;;;13.30;99099.00;;;;5033602;28;20552;-64
2023/09/26 07:52:43;;;;;;;6.97;6.20;;;;;13.30;99097.00;;;;5035212;28;20048;-66
2023/09/26 07:55:09;;;;;;;13.90;6.93;;;;;13.50;99099.00;;;;5034418;28;20041;-64
2023/09/26 07:57:36;;;;;;;16.02;7.55;;;;;13.70;99101.00;;;;5034935;28;20041;-65
2023/09/26 08:00:10;;;;;;;32.75;19.50;;;;;13.80;99102.00;;;;5034776;28;20053;-65
2023/09/26 08:02:36;;;;;;;15.00;7.05;;;;;13.90;99099.00;;;;5034766;28;20053;-65
2023/09/26 08:05:03;;;;;;;10.65;7.47;;;;;14.00;99100.00;;;;5034034;28;20490;-65
2023/09/26 08:07:30;;;;;;;10.77;7.20;;;;;14.10;99095.00;;;;5034636;28;20137;-65
2023/09/26 08:10:00;;;;;;;18.35;7.65;;;;;14.20;99090.00;;;;5035565;28;20052;-65
2023/09/26 08:12:27;;;;;;;10.90;7.00;;;;;14.40;99097.00;;;;5035639;28;20068;-66
2023/09/26 08:14:54;;;;;;;11.68;8.23;;;;;14.50;99098.00;;;;5034993;28;20052;-65
2023/09/26 08:17:21;;;;;;;10.20;7.43;;;;;14.60;99092.00;;;;5034148;28;20061;-65
2023/09/26 08:19:47;;;;;;;8.98;6.93;;;;;14.80;99094.00;;;;5034591;28;20045;-65
2023/09/26 08:22:14;;;;;;;11.35;6.90;;;;;14.90;99094.00;;;;5034555;28;20046;-66
2023/09/26 08:24:40;;;;;;;8.57;6.63;;;;;15.10;99093.00;;;;5034725;28;20045;-66
2023/09/26 08:27:07;;;;;;;11.95;6.93;;;;;15.30;99098.00;;;;5035434;28;20038;-66
2023/09/26 08:29:34;;;;;;;10.57;6.63;;;;;15.40;99087.00;;;;5034629;28;20049;-67
2023/09/26 08:32:00;;;;;;;9.32;7.15;;;;;15.60;99084.00;;;;5033708;28;20064;-66
2023/09/26 08:34:27;;;;;;;8.27;6.70;;;;;15.70;99094.00;;;;5033254;28;20475;-67
2023/09/26 08:36:54;;;;;;;15.02;8.15;;;;;15.90;99085.00;;;;5033761;28;20053;-67
2023/09/26 08:39:20;;;;;;;18.92;12.90;;;;;16.10;99087.00;;;;5033973;28;20046;-67
2023/09/26 08:41:47;;;;;;;9.80;8.50;;;;;16.20;99093.00;;;;5033922;28;20041;-67
2023/09/26 08:44:16;;;;;;;9.45;7.75;;;;;16.40;99083.00;;;;5033233;28;20466;-66
2023/09/26 08:46:45;;;;;;;8.98;6.93;;;;;16.40;99094.00;;;;5033709;28;20037;-67
2023/09/26 08:49:11;;;;;;;10.85;6.38;;;;;16.60;99087.00;;;;5033742;28;20045;-67
2023/09/26 08:51:38;;;;;;;10.57;5.50;;;;;16.70;99089.00;;;;5033718;28;20041;-67
2023/09/26 08:54:05;;;;;;;7.53;5.53;;;;;16.90;99086.00;;;;5033117;28;20422;-66
2023/09/26 08:56:33;;;;;;;9.23;5.78;;;;;17.00;99081.00;;;;5033214;28;20057;-67
2023/09/26 08:59:01;;;;;;;8.30;5.38;;;;;17.10;99076.00;;;;5033305;28;20042;-67
2023/09/26 09:01:28;;;;;;;7.57;5.03;;;;;17.20;99079.00;;;;5033141;28;20048;-67
2023/09/26 09:03:55;;;;;;;6.68;5.57;;;;;17.30;99083.00;;;;5032914;28;20048;-66
2023/09/26 09:06:22;;;;;;;8.82;5.50;;;;;17.40;99070.00;;;;5033586;28;20475;-66
2023/09/26 09:08:48;;;;;;;8.35;5.20;;;;;17.60;99071.00;;;;5033483;28;20048;-66
2023/09/26 09:11:32;;;;;;;7.47;4.57;;;;;17.70;99071.00;;;;5038385;28;20045;-67
2023/09/26 09:13:59;;;;;;;6.88;4.57;;;;;17.90;99074.00;;;;5052581;28;20131;-66
2023/09/26 09:16:26;;;;;;;5.43;4.40;;;;;18.00;99073.00;;;;5053074;28;20128;-67
2023/09/26 09:18:58;;;;;;;7.18;4.57;;;;;18.20;99068.00;;;;5053168;28;20486;-67
2023/09/26 09:21:29;;;;;;;5.75;3.90;;;;;18.40;99075.00;;;;5053249;28;20106;-67
2023/09/26 09:23:59;;;;;;;6.78;3.60;;;;;18.50;99070.00;;;;5052411;28;20102;-67
2023/09/26 09:26:30;;;;;;;5.78;4.65;;;;;18.60;99072.00;;;;5052774;28;20455;-66
2023/09/26 09:29:14;;;;;;;5.15;3.85;;;;;18.80;99074.00;;;;5052931;28;20064;-67
2023/09/26 09:31:40;;;;;;;6.45;3.83;;;;;18.90;99068.00;;;;5051734;28;20079;-67
2023/09/26 09:34:07;;;;;;;8.50;3.63;;;;;19.00;99075.00;;;;5052232;28;20064;-67
2023/09/26 09:36:34;;;;;;;10.50;4.10;;;;;19.20;99071.00;;;;5052476;28;20159;-66
2023/09/26 09:39:02;;;;;;;3.55;2.88;;;;;19.20;99077.00;;;;5053169;28;20055;-66
2023/09/26 09:41:31;;;;;;;4.15;3.10;;;;;19.30;99073.00;;;;5053100;28;20509;-66
2023/09/26 09:43:58;;;;;;;5.90;3.25;;;;;19.40;99065.00;;;;5052347;28;20075;-67
2023/09/26 09:46:26;;;;;;;9.25;5.03;;;;;19.50;99076.00;;;;5052466;28;20045;-66
2023/09/26 09:48:58;;;;;;;6.82;4.55;;;;;19.60;99062.00;;;;5052455;28;20052;-66
2023/09/26 09:51:26;;;;;;;4.82;3.05;;;;;19.70;99063.00;;;;5051319;28;20037;-67
2023/09/26 09:53:54;;;;;;;3.20;2.90;;;;;19.90;99063.00;;;;5050738;28;20083;-66
2023/09/26 09:56:24;;;;;;;3.47;3.08;;;;;19.90;99064.00;;;;5052331;28;20041;-67
2023/09/26 09:58:51;;;;;;;5.93;3.22;;;;;20.00;99065.00;;;;5052418;28;20037;-67
2023/09/26 10:01:20;;;;;;;13.13;4.05;;;;;20.10;99060.00;;;;5052198;28;20086;-67
2023/09/26 10:03:50;;;;;;;3.25;2.95;;;;;20.30;99057.00;;;;5051694;28;20083;-67
2023/09/26 10:06:20;;;;;;;6.90;3.60;;;;;20.40;99055.00;;;;5052295;28;20041;-67
2023/09/26 10:08:48;;;;;;;4.38;2.90;;;;;20.40;99049.00;;;;5051347;28;20060;-67
2023/09/26 10:11:18;;;;;;;5.57;2.97;;;;;20.40;99043.00;;;;5052200;28;20494;-67
2023/09/26 10:13:49;;;;;;;9.43;5.18;;;;;20.60;99037.00;;;;5050234;28;20049;-66
2023/09/26 10:16:18;;;;;;;5.25;3.10;;;;;20.70;99040.00;;;;5052274;28;20444;-67
2023/09/26 10:18:47;;;;;;;3.30;2.80;;;;;20.80;99044.00;;;;5051991;28;20048;-66
2023/09/26 10:21:28;;;;;;;6.93;3.22;;;;;21.00;99040.00;;;;5051036;28;20448;-67
2023/09/26 10:24:10;;;;;;;4.53;2.92;;;;;21.20;99043.00;;;;5051676;28;20049;-67
2023/09/26 10:26:37;;;;;;;4.43;2.67;;;;;21.20;99033.00;;;;5052031;28;20049;-67
2023/09/26 10:29:25;;;;;;;3.38;2.38;;;;;21.30;99037.00;;;;5051828;28;20120;-68
2023/09/26 10:32:04;;;;;;;3.45;2.50;;;;;21.30;99028.00;;;;5051966;28;20162;-67
2023/09/26 10:34:36;;;;;;;5.03;2.65;;;;;21.30;99032.00;;;;5051302;28;20049;-67
2023/09/26 10:37:20;;;;;;;3.15;2.67;;;;;21.50;99033.00;;;;5051793;28;20045;-71
2023/09/26 10:39:48;;;;;;;3.45;2.20;;;;;21.60;99025.00;;;;5050919;28;20401;-69
2023/09/26 10:42:20;;;;;;;3.17;2.17;;;;;21.80;99028.00;;;;5051976;28;20041;-68
2023/09/26 10:45:07;;;;;;;3.92;2.90;;;;;21.90;99023.00;;;;5050038;28;20044;-68
2023/09/26 10:47:36;;;;;;;2.75;2.38;;;;;22.10;99019.00;;;;5051868;28;20120;-69
2023/09/26 10:50:05;;;;;;;2.92;2.45;;;;;22.20;99011.00;;;;5051767;28;20142;-66
2023/09/26 10:52:32;;;;;;;4.65;2.72;;;;;22.30;99012.00;;;;5051835;28;20045;-66
2023/09/26 10:54:59;;;;;;;4.25;2.70;;;;;22.40;99011.00;;;;5051212;28;20103;-66
2023/09/26 10:57:28;;;;;;;3.30;2.28;;;;;22.30;99018.00;;;;5051681;28;20099;-66
2023/09/26 10:59:55;;;;;;;1.98;1.77;;;;;22.40;99014.00;;;;5051429;28;20051;-66
2023/09/26 11:02:22;;;;;;;2.40;2.05;;;;;22.50;99012.00;;;;5051928;28;20136;-66
2023/09/26 11:04:50;;;;;;;2.60;2.28;;;;;22.60;99009.00;;;;5051104;28;20045;-66
2023/09/26 11:07:17;;;;;;;3.08;1.95;;;;;22.70;99011.00;;;;5051524;28;20417;-66
2023/09/26 11:09:45;;;;;;;3.15;2.83;;;;;22.80;99010.00;;;;5050371;28;20505;-66
2023/09/26 11:12:12;;;;;;;4.70;2.53;;;;;22.80;99004.00;;;;5051592;28;20059;-66
2023/09/26 11:14:40;;;;;;;4.72;2.85;;;;;22.90;99011.00;;;;5049734;28;20049;-66
2023/09/26 11:17:08;;;;;;;2.95;1.95;;;;;23.00;99010.00;;;;5050295;28;20041;-63
2023/09/26 11:19:36;;;;;;;2.40;2.20;;;;;23.10;99007.00;;;;5050223;28;20091;-63
2023/09/26 11:22:02;;;;;;;4.43;1.90;;;;;23.30;99004.00;;;;5055390;28;20045;-66
2023/09/26 11:24:32;;;;;;;3.55;2.05;;;;;23.40;99004.00;;;;5054721;28;20041;-63
2023/09/26 11:27:04;;;;;;;2.40;2.20;;;;;23.40;99005.00;;;;5055184;28;20048;-64
2023/09/26 11:29:34;;;;;;;4.95;3.00;;;;;23.50;99010.00;;;;5055337;28;20041;-64
2023/09/26 11:32:03;;;;;;;3.08;2.33;;;;;23.70;99001.00;;;;5055452;28;20045;-64
2023/09/26 11:34:31;;;;;;;5.53;2.65;;;;;23.80;98996.00;;;;5054810;28;20045;-64
2023/09/26 11:36:58;;;;;;;8.10;3.30;;;;;23.90;99004.00;;;;5055053;28;20409;-65
2023/09/26 11:39:24;;;;;;;12.27;7.40;;;;;24.00;98995.00;;;;5054918;28;20040;-64
2023/09/26 11:42:08;;;;;;;9.93;5.95;;;;;24.10;99003.00;;;;5055025;28;20123;-64
2023/09/26 11:44:35;;;;;;;3.67;2.13;;;;;24.10;99003.00;;;;5053227;28;20083;-64
2023/09/26 11:47:05;;;;;;;2.58;2.25;;;;;24.10;99000.00;;;;5054896;28;20476;-64
2023/09/26 11:49:32;;;;;;;2.22;1.60;;;;;24.20;98993.00;;;;5055109;28;20379;-65
2023/09/26 11:51:59;;;;;;;3.85;2.20;;;;;24.30;98998.00;;;;5053726;28;20095;-65
2023/09/26 11:54:27;;;;;;;4.72;2.17;;;;;24.30;99002.00;;;;5054298;28;20045;-65
2023/09/26 11:56:55;;;;;;;5.15;2.70;;;;;24.40;99001.00;;;;5054578;28;20071;-66
2023/09/26 11:59:21;;;;;;;2.63;1.92;;;;;24.50;98993.00;;;;5054618;28;20045;-64
2023/09/26 12:01:48;;;;;;;2.45;2.03;;;;;24.60;98989.00;;;;5054746;28;20065;-64
2023/09/26 12:04:16;;;;;;;5.07;2.20;;;;;24.70;98986.00;;;;5054026;28;20045;-64
2023/09/26 12:06:42;;;;;;;6.28;4.22;;;;;24.70;98982.00;;;;5054532;28;20118;-65
2023/09/26 12:09:21;;;;;;;2.83;2.45;;;;;24.90;98982.00;;;;5054491;28;20040;-66
2023/09/26 12:11:51;;;;;;;4.20;2.38;;;;;25.00;98985.00;;;;5054642;28;20045;-65
2023/09/26 12:14:18;;;;;;;2.08;1.88;;;;;25.00;98982.00;;;;5053707;28;20041;-65
2023/09/26 12:16:53;;;;;;;2.97;2.30;;;;;25.10;98977.00;;;;5054305;28;20083;-65
2023/09/26 12:19:22;;;;;;;4.25;2.00;;;;;25.10;98982.00;;;;5052846;28;20504;-65
2023/09/26 12:21:49;;;;;;;3.22;1.90;;;;;25.20;98979.00;;;;5054349;28;20073;-65